Time;durP1;ratioP1;P1;durP2;ratioP2;P2;SDS_P1;SDS_P2;PMS_P1;PMS_P2;Temp;Humidity;BMP_temperature;BMP_pressure;BME280_temperature;BME280_humidity;BME280_pressure;Samples;Min_cycle;Max_cycle;Signal;HPM_P1;HPM_P2
2020/03/10 00:00:04;;;;;;;3.8;2.75;;;;;;;2.9;81.99121;95389.22;;;;
2020/03/10 00:01:25;;;;;;;3.8;2.75;;;;;;;2.9;81.99121;95389.22;;;;
2020/03/10 00:02:26;;;;;;;3.8;2.75;;;;;;;2.9;81.99121;95389.22;;;;
2020/03/10 00:03:26;;;;;;;3.8;2.75;;;;;;;2.9;81.99121;95389.22;;;;
2020/03/10 00:04:27;;;;;;;3.8;2.75;;;;;;;2.9;81.99121;95389.22;;;;
2020/03/10 00:05:27;;;;;;;3.8;2.75;;;;;;;2.9;81.99121;95389.22;;;;
2020/03/10 00:06:28;;;;;;;3.8;2.75;;;;;;;2.9;81.99121;95389.22;;;;
2020/03/10 00:07:30;;;;;;;5.949999;3.95;;;;;;;2.77;81.94629;95382.79;;;;
2020/03/10 00:08:31;;;;;;;5.949999;3.95;;;;;;;2.77;81.94629;95382.79;;;;
2020/03/10 00:09:31;;;;;;;5.949999;3.95;;;;;;;2.77;81.94629;95382.79;;;;
2020/03/10 00:10:31;;;;;;;5.949999;3.95;;;;;;;2.77;81.94629;95382.79;;;;
2020/03/10 00:11:32;;;;;;;5.949999;3.95;;;;;;;2.77;81.94629;95382.79;;;;
2020/03/10 00:12:33;;;;;;;5.949999;3.95;;;;;;;2.77;81.94629;95382.79;;;;
2020/03/10 00:13:33;;;;;;;5.949999;3.95;;;;;;;2.77;81.94629;95382.79;;;;
2020/03/10 00:14:34;;;;;;;5.949999;3.95;;;;;;;2.77;81.94629;95382.79;;;;
2020/03/10 00:15:34;;;;;;;5.949999;3.95;;;;;;;2.77;81.94629;95382.79;;;;
2020/03/10 00:16:35;;;;;;;5.949999;3.95;;;;;;;2.77;81.94629;95382.79;;;;
2020/03/10 00:17:35;;;;;;;5.249999;4.149999;;;;;;;2.55;81.85059;95378.85;;;;
2020/03/10 00:18:37;;;;;;;5.249999;4.149999;;;;;;;2.55;81.85059;95378.85;;;;
2020/03/10 00:19:37;;;;;;;5.249999;4.149999;;;;;;;2.55;81.85059;95378.85;;;;
2020/03/10 00:20:45;;;;;;;5.249999;4.149999;;;;;;;2.55;81.85059;95378.85;;;;
2020/03/10 00:21:46;;;;;;;5.249999;4.149999;;;;;;;2.55;81.85059;95378.85;;;;
2020/03/10 00:22:46;;;;;;;5.249999;4.149999;;;;;;;2.55;81.85059;95378.85;;;;
2020/03/10 00:23:47;;;;;;;5.249999;4.149999;;;;;;;2.55;81.85059;95378.85;;;;
2020/03/10 00:24:47;;;;;;;5.249999;4.149999;;;;;;;2.55;81.85059;95378.85;;;;
2020/03/10 00:25:48;;;;;;;5.249999;4.149999;;;;;;;2.55;81.85059;95378.85;;;;
2020/03/10 00:26:51;;;;;;;5.249999;4.149999;;;;;;;2.55;81.85059;95378.85;;;;
2020/03/10 00:27:51;;;;;;;5.249999;4.149999;;;;;;;2.55;81.85059;95378.85;;;;
2020/03/10 00:28:53;;;;;;;3.4;3;;;;;;;2.41;82.05469;95356.2;;;;
2020/03/10 00:29:53;;;;;;;3.4;3;;;;;;;2.41;82.05469;95356.2;;;;
2020/03/10 00:30:54;;;;;;;3.4;3;;;;;;;2.41;82.05469;95356.2;;;;
2020/03/10 00:31:54;;;;;;;3.4;3;;;;;;;2.41;82.05469;95356.2;;;;
2020/03/10 00:32:55;;;;;;;3.4;3;;;;;;;2.41;82.05469;95356.2;;;;
2020/03/10 00:33:55;;;;;;;3.4;3;;;;;;;2.41;82.05469;95356.2;;;;
2020/03/10 00:34:55;;;;;;;3.4;3;;;;;;;2.41;82.05469;95356.2;;;;
2020/03/10 00:35:56;;;;;;;3.4;3;;;;;;;2.41;82.05469;95356.2;;;;
2020/03/10 00:36:56;;;;;;;3.4;3;;;;;;;2.41;82.05469;95356.2;;;;
2020/03/10 00:37:57;;;;;;;3.4;3;;;;;;;2.41;82.05469;95356.2;;;;
2020/03/10 00:38:57;;;;;;;4;3.149999;;;;;;;2.16;81.95508;95348.96;;;;
2020/03/10 00:39:58;;;;;;;4;3.149999;;;;;;;2.16;81.95508;95348.96;;;;
2020/03/10 00:40:58;;;;;;;4;3.149999;;;;;;;2.16;81.95508;95348.96;;;;
2020/03/10 00:41:59;;;;;;;4;3.149999;;;;;;;2.16;81.95508;95348.96;;;;
2020/03/10 00:43:02;;;;;;;4;3.149999;;;;;;;2.16;81.95508;95348.96;;;;
2020/03/10 00:44:03;;;;;;;4;3.149999;;;;;;;2.16;81.95508;95348.96;;;;
2020/03/10 00:45:03;;;;;;;4;3.149999;;;;;;;2.16;81.95508;95348.96;;;;
2020/03/10 00:46:05;;;;;;;4;3.149999;;;;;;;2.16;81.95508;95348.96;;;;
2020/03/10 00:47:06;;;;;;;4;3.149999;;;;;;;2.16;81.95508;95348.96;;;;
2020/03/10 00:48:06;;;;;;;4;3.149999;;;;;;;2.16;81.95508;95348.96;;;;
2020/03/10 00:49:07;;;;;;;4;3.149999;;;;;;;2.16;81.95508;95348.96;;;;
2020/03/10 00:50:07;;;;;;;5.1;3.4;;;;;;;2;82.23828;95337.16;;;;
2020/03/10 00:51:08;;;;;;;5.1;3.4;;;;;;;2;82.23828;95337.16;;;;
2020/03/10 00:52:08;;;;;;;5.1;3.4;;;;;;;2;82.23828;95337.16;;;;
2020/03/10 00:53:08;;;;;;;5.1;3.4;;;;;;;2;82.23828;95337.16;;;;
2020/03/10 00:54:09;;;;;;;5.1;3.4;;;;;;;2;82.23828;95337.16;;;;
2020/03/10 00:55:09;;;;;;;5.1;3.4;;;;;;;2;82.23828;95337.16;;;;
2020/03/10 00:56:10;;;;;;;5.1;3.4;;;;;;;2;82.23828;95337.16;;;;
2020/03/10 00:57:11;;;;;;;5.1;3.4;;;;;;;2;82.23828;95337.16;;;;
2020/03/10 00:58:11;;;;;;;5.1;3.4;;;;;;;2;82.23828;95337.16;;;;
2020/03/10 00:59:12;;;;;;;5.1;3.4;;;;;;;2;82.23828;95337.16;;;;
2020/03/10 01:00:12;;;;;;;5.7;3.35;;;;;;;1.82;82.1709;95333.62;;;;
2020/03/10 01:01:17;;;;;;;5.7;3.35;;;;;;;1.82;82.1709;95333.62;;;;
2020/03/10 01:02:18;;;;;;;5.7;3.35;;;;;;;1.82;82.1709;95333.62;;;;
2020/03/10 01:03:18;;;;;;;5.7;3.35;;;;;;;1.82;82.1709;95333.62;;;;
2020/03/10 01:04:19;;;;;;;5.7;3.35;;;;;;;1.82;82.1709;95333.62;;;;
2020/03/10 01:05:19;;;;;;;5.7;3.35;;;;;;;1.82;82.1709;95333.62;;;;
2020/03/10 01:06:25;;;;;;;5.7;3.35;;;;;;;1.82;82.1709;95333.62;;;;
2020/03/10 01:07:48;;;;;;;5.7;3.35;;;;;;;1.82;82.1709;95333.62;;;;
2020/03/10 01:08:48;;;;;;;5.7;3.35;;;;;;;1.82;82.1709;95333.62;;;;
2020/03/10 01:09:49;;;;;;;5.7;3.35;;;;;;;1.82;82.1709;95333.62;;;;
2020/03/10 01:10:49;;;;;;;3.95;3.15;;;;;;;1.67;82.1123;95316.68;;;;
2020/03/10 01:11:50;;;;;;;3.95;3.15;;;;;;;1.67;82.1123;95316.68;;;;
2020/03/10 01:12:51;;;;;;;3.95;3.15;;;;;;;1.67;82.1123;95316.68;;;;
2020/03/10 01:13:52;;;;;;;3.95;3.15;;;;;;;1.67;82.1123;95316.68;;;;
2020/03/10 01:14:52;;;;;;;3.95;3.15;;;;;;;1.67;82.1123;95316.68;;;;
2020/03/10 01:15:53;;;;;;;3.95;3.15;;;;;;;1.67;82.1123;95316.68;;;;
2020/03/10 01:16:55;;;;;;;3.95;3.15;;;;;;;1.67;82.1123;95316.68;;;;
2020/03/10 01:17:56;;;;;;;3.95;3.15;;;;;;;1.67;82.1123;95316.68;;;;
2020/03/10 01:18:58;;;;;;;3.95;3.15;;;;;;;1.67;82.1123;95316.68;;;;
2020/03/10 01:19:58;;;;;;;3.95;3.15;;;;;;;1.67;82.1123;95316.68;;;;
2020/03/10 01:20:59;;;;;;;3.95;3.15;;;;;;;1.67;82.1123;95316.68;;;;
2020/03/10 01:21:59;;;;;;;3.95;3.15;;;;;;;1.67;82.1123;95316.68;;;;
2020/03/10 01:23:06;;;;;;;3.95;3.15;;;;;;;1.67;82.1123;95316.68;;;;
2020/03/10 01:24:07;;;;;;;3.95;3.15;;;;;;;1.67;82.1123;95316.68;;;;
2020/03/10 01:25:09;;;;;;;3.95;3.15;;;;;;;1.67;82.1123;95316.68;;;;
2020/03/10 01:26:10;;;;;;;3.95;3.15;;;;;;;1.67;82.1123;95316.68;;;;
2020/03/10 01:27:10;;;;;;;3.95;3.15;;;;;;;1.67;82.1123;95316.68;;;;
2020/03/10 01:28:11;;;;;;;3.95;3.15;;;;;;;1.67;82.1123;95316.68;;;;
2020/03/10 01:29:11;;;;;;;3.95;3.15;;;;;;;1.67;82.1123;95316.68;;;;
2020/03/10 01:30:12;;;;;;;3.95;3.15;;;;;;;1.67;82.1123;95316.68;;;;
2020/03/10 01:31:12;;;;;;;3.95;3.15;;;;;;;1.67;82.1123;95316.68;;;;
2020/03/10 01:32:13;;;;;;;4.2;3.4;;;;;;;1.33;81.97461;95302.64;;;;
2020/03/10 01:33:13;;;;;;;4.2;3.4;;;;;;;1.33;81.97461;95302.64;;;;
2020/03/10 01:34:14;;;;;;;4.2;3.4;;;;;;;1.33;81.97461;95302.64;;;;
2020/03/10 01:35:14;;;;;;;4.2;3.4;;;;;;;1.33;81.97461;95302.64;;;;
2020/03/10 01:36:15;;;;;;;4.2;3.4;;;;;;;1.33;81.97461;95302.64;;;;
2020/03/10 01:37:16;;;;;;;4.2;3.4;;;;;;;1.33;81.97461;95302.64;;;;
2020/03/10 01:38:17;;;;;;;4.2;3.4;;;;;;;1.33;81.97461;95302.64;;;;
2020/03/10 01:39:17;;;;;;;4.2;3.4;;;;;;;1.33;81.97461;95302.64;;;;
2020/03/10 01:40:18;;;;;;;4.2;3.4;;;;;;;1.33;81.97461;95302.64;;;;
2020/03/10 01:41:19;;;;;;;4.2;3.4;;;;;;;1.33;81.97461;95302.64;;;;
2020/03/10 01:42:19;;;;;;;4.2;3.4;;;;;;;1.33;81.97461;95302.64;;;;
2020/03/10 01:43:20;;;;;;;4.049999;3.25;;;;;;;1.08;82.22852;95300.23;;;;
2020/03/10 01:44:21;;;;;;;4.049999;3.25;;;;;;;1.08;82.22852;95300.23;;;;
2020/03/10 01:45:21;;;;;;;4.049999;3.25;;;;;;;1.08;82.22852;95300.23;;;;
2020/03/10 01:46:22;;;;;;;4.049999;3.25;;;;;;;1.08;82.22852;95300.23;;;;
2020/03/10 01:47:22;;;;;;;4.049999;3.25;;;;;;;1.08;82.22852;95300.23;;;;
2020/03/10 01:48:23;;;;;;;4.049999;3.25;;;;;;;1.08;82.22852;95300.23;;;;
2020/03/10 01:49:24;;;;;;;4.049999;3.25;;;;;;;1.08;82.22852;95300.23;;;;
2020/03/10 01:50:26;;;;;;;4.049999;3.25;;;;;;;1.08;82.22852;95300.23;;;;
2020/03/10 01:51:26;;;;;;;4.049999;3.25;;;;;;;1.08;82.22852;95300.23;;;;
2020/03/10 01:52:27;;;;;;;4.049999;3.25;;;;;;;1.08;82.22852;95300.23;;;;
2020/03/10 01:53:28;;;;;;;5.5;3.649999;;;;;;;0.96;82.48633;95313.62;;;;
2020/03/10 01:54:28;;;;;;;5.5;3.649999;;;;;;;0.96;82.48633;95313.62;;;;
2020/03/10 01:55:29;;;;;;;5.5;3.649999;;;;;;;0.96;82.48633;95313.62;;;;
2020/03/10 01:56:29;;;;;;;5.5;3.649999;;;;;;;0.96;82.48633;95313.62;;;;
2020/03/10 01:57:30;;;;;;;5.5;3.649999;;;;;;;0.96;82.48633;95313.62;;;;
2020/03/10 01:58:30;;;;;;;5.5;3.649999;;;;;;;0.96;82.48633;95313.62;;;;
2020/03/10 01:59:31;;;;;;;5.5;3.649999;;;;;;;0.96;82.48633;95313.62;;;;
2020/03/10 02:00:32;;;;;;;5.5;3.649999;;;;;;;0.96;82.48633;95313.62;;;;
2020/03/10 02:01:32;;;;;;;5.5;3.649999;;;;;;;0.96;82.48633;95313.62;;;;
2020/03/10 02:02:33;;;;;;;5.5;3.649999;;;;;;;0.96;82.48633;95313.62;;;;
2020/03/10 02:03:34;;;;;;;5.5;3.649999;;;;;;;0.96;82.48633;95313.62;;;;
2020/03/10 02:04:34;;;;;;;4.65;3.75;;;;;;;0.78;82.72559;95308.59;;;;
2020/03/10 02:05:35;;;;;;;4.65;3.75;;;;;;;0.78;82.72559;95308.59;;;;
2020/03/10 02:06:35;;;;;;;4.65;3.75;;;;;;;0.78;82.72559;95308.59;;;;
2020/03/10 02:07:36;;;;;;;4.65;3.75;;;;;;;0.78;82.72559;95308.59;;;;
2020/03/10 02:08:36;;;;;;;4.65;3.75;;;;;;;0.78;82.72559;95308.59;;;;
2020/03/10 02:09:37;;;;;;;4.65;3.75;;;;;;;0.78;82.72559;95308.59;;;;
2020/03/10 02:10:37;;;;;;;4.65;3.75;;;;;;;0.78;82.72559;95308.59;;;;
2020/03/10 02:11:38;;;;;;;4.65;3.75;;;;;;;0.78;82.72559;95308.59;;;;
2020/03/10 02:12:38;;;;;;;4.65;3.75;;;;;;;0.78;82.72559;95308.59;;;;
2020/03/10 02:13:38;;;;;;;4.65;3.75;;;;;;;0.78;82.72559;95308.59;;;;
2020/03/10 02:14:39;;;;;;;4.9;3.45;;;;;;;0.8;83.08301;95285.35;;;;
2020/03/10 02:15:39;;;;;;;4.9;3.45;;;;;;;0.8;83.08301;95285.35;;;;
2020/03/10 02:16:40;;;;;;;4.9;3.45;;;;;;;0.8;83.08301;95285.35;;;;
2020/03/10 02:17:41;;;;;;;4.9;3.45;;;;;;;0.8;83.08301;95285.35;;;;
2020/03/10 02:18:41;;;;;;;4.9;3.45;;;;;;;0.8;83.08301;95285.35;;;;
2020/03/10 02:19:42;;;;;;;4.9;3.45;;;;;;;0.8;83.08301;95285.35;;;;
2020/03/10 02:20:42;;;;;;;4.9;3.45;;;;;;;0.8;83.08301;95285.35;;;;
2020/03/10 02:21:43;;;;;;;4.9;3.45;;;;;;;0.8;83.08301;95285.35;;;;
2020/03/10 02:22:44;;;;;;;4.9;3.45;;;;;;;0.8;83.08301;95285.35;;;;
2020/03/10 02:23:44;;;;;;;4.9;3.45;;;;;;;0.8;83.08301;95285.35;;;;
2020/03/10 02:24:45;;;;;;;4.9;3.45;;;;;;;0.8;83.08301;95285.35;;;;
2020/03/10 02:25:45;;;;;;;5.799999;3.25;;;;;;;0.74;83.30176;95276.73;;;;
2020/03/10 02:26:46;;;;;;;5.799999;3.25;;;;;;;0.74;83.30176;95276.73;;;;
2020/03/10 02:27:46;;;;;;;5.799999;3.25;;;;;;;0.74;83.30176;95276.73;;;;
2020/03/10 02:28:47;;;;;;;5.799999;3.25;;;;;;;0.74;83.30176;95276.73;;;;
2020/03/10 02:29:47;;;;;;;5.799999;3.25;;;;;;;0.74;83.30176;95276.73;;;;
2020/03/10 02:30:48;;;;;;;5.799999;3.25;;;;;;;0.74;83.30176;95276.73;;;;
2020/03/10 02:31:48;;;;;;;5.799999;3.25;;;;;;;0.74;83.30176;95276.73;;;;
2020/03/10 02:32:49;;;;;;;5.799999;3.25;;;;;;;0.74;83.30176;95276.73;;;;
2020/03/10 02:33:50;;;;;;;5.799999;3.25;;;;;;;0.74;83.30176;95276.73;;;;
2020/03/10 02:34:50;;;;;;;5.799999;3.25;;;;;;;0.74;83.30176;95276.73;;;;
2020/03/10 02:35:51;;;;;;;4.35;2.95;;;;;;;0.86;83.92871;95273.17;;;;
2020/03/10 02:36:51;;;;;;;4.35;2.95;;;;;;;0.86;83.92871;95273.17;;;;
2020/03/10 02:37:52;;;;;;;4.35;2.95;;;;;;;0.86;83.92871;95273.17;;;;
2020/03/10 02:38:52;;;;;;;4.35;2.95;;;;;;;0.86;83.92871;95273.17;;;;
2020/03/10 02:39:52;;;;;;;4.35;2.95;;;;;;;0.86;83.92871;95273.17;;;;
2020/03/10 02:40:53;;;;;;;4.35;2.95;;;;;;;0.86;83.92871;95273.17;;;;
2020/03/10 02:41:53;;;;;;;4.35;2.95;;;;;;;0.86;83.92871;95273.17;;;;
2020/03/10 02:42:54;;;;;;;4.35;2.95;;;;;;;0.86;83.92871;95273.17;;;;
2020/03/10 02:43:54;;;;;;;4.35;2.95;;;;;;;0.86;83.92871;95273.17;;;;
2020/03/10 02:44:55;;;;;;;4.35;2.95;;;;;;;0.86;83.92871;95273.17;;;;
2020/03/10 02:45:55;;;;;;;4.35;2.95;;;;;;;0.86;83.92871;95273.17;;;;
2020/03/10 02:46:57;;;;;;;4.45;2.25;;;;;;;1.01;84.58594;95253.61;;;;
2020/03/10 02:47:58;;;;;;;4.45;2.25;;;;;;;1.01;84.58594;95253.61;;;;
2020/03/10 02:48:59;;;;;;;4.45;2.25;;;;;;;1.01;84.58594;95253.61;;;;
2020/03/10 02:49:59;;;;;;;4.45;2.25;;;;;;;1.01;84.58594;95253.61;;;;
2020/03/10 02:51:00;;;;;;;4.45;2.25;;;;;;;1.01;84.58594;95253.61;;;;
2020/03/10 02:52:00;;;;;;;4.45;2.25;;;;;;;1.01;84.58594;95253.61;;;;
2020/03/10 02:53:01;;;;;;;4.45;2.25;;;;;;;1.01;84.58594;95253.61;;;;
2020/03/10 02:54:02;;;;;;;4.45;2.25;;;;;;;1.01;84.58594;95253.61;;;;
2020/03/10 02:55:02;;;;;;;4.45;2.25;;;;;;;1.01;84.58594;95253.61;;;;
2020/03/10 02:56:03;;;;;;;4.45;2.25;;;;;;;1.01;84.58594;95253.61;;;;
2020/03/10 02:57:04;;;;;;;4.199999;2.45;;;;;;;1.21;84.26855;95234;;;;
2020/03/10 02:58:04;;;;;;;4.199999;2.45;;;;;;;1.21;84.26855;95234;;;;
2020/03/10 02:59:05;;;;;;;4.199999;2.45;;;;;;;1.21;84.26855;95234;;;;
2020/03/10 03:00:05;;;;;;;4.199999;2.45;;;;;;;1.21;84.26855;95234;;;;
2020/03/10 03:01:09;;;;;;;4.199999;2.45;;;;;;;1.21;84.26855;95234;;;;
2020/03/10 03:02:09;;;;;;;4.199999;2.45;;;;;;;1.21;84.26855;95234;;;;
2020/03/10 03:03:10;;;;;;;4.199999;2.45;;;;;;;1.21;84.26855;95234;;;;
2020/03/10 03:04:10;;;;;;;4.199999;2.45;;;;;;;1.21;84.26855;95234;;;;
2020/03/10 03:05:11;;;;;;;4.199999;2.45;;;;;;;1.21;84.26855;95234;;;;
2020/03/10 03:06:11;;;;;;;4.199999;2.45;;;;;;;1.21;84.26855;95234;;;;
2020/03/10 03:07:12;;;;;;;4.199999;2.45;;;;;;;1.21;84.26855;95234;;;;
2020/03/10 03:08:12;;;;;;;2.75;1.95;;;;;;;1.35;84.43262;95229.21;;;;
2020/03/10 03:09:13;;;;;;;2.75;1.95;;;;;;;1.35;84.43262;95229.21;;;;
2020/03/10 03:10:14;;;;;;;2.75;1.95;;;;;;;1.35;84.43262;95229.21;;;;
2020/03/10 03:11:15;;;;;;;2.75;1.95;;;;;;;1.35;84.43262;95229.21;;;;
2020/03/10 03:12:15;;;;;;;2.75;1.95;;;;;;;1.35;84.43262;95229.21;;;;
2020/03/10 03:13:16;;;;;;;2.75;1.95;;;;;;;1.35;84.43262;95229.21;;;;
2020/03/10 03:14:16;;;;;;;2.75;1.95;;;;;;;1.35;84.43262;95229.21;;;;
2020/03/10 03:15:17;;;;;;;2.75;1.95;;;;;;;1.35;84.43262;95229.21;;;;
2020/03/10 03:16:17;;;;;;;2.75;1.95;;;;;;;1.35;84.43262;95229.21;;;;
2020/03/10 03:17:18;;;;;;;2.75;1.95;;;;;;;1.35;84.43262;95229.21;;;;
2020/03/10 03:18:18;;;;;;;3.8;1.95;;;;;;;1.61;84.2959;95214.98;;;;
2020/03/10 03:19:19;;;;;;;3.8;1.95;;;;;;;1.61;84.2959;95214.98;;;;
2020/03/10 03:20:19;;;;;;;3.8;1.95;;;;;;;1.61;84.2959;95214.98;;;;
2020/03/10 03:21:20;;;;;;;3.8;1.95;;;;;;;1.61;84.2959;95214.98;;;;
2020/03/10 03:22:20;;;;;;;3.8;1.95;;;;;;;1.61;84.2959;95214.98;;;;
2020/03/10 03:23:21;;;;;;;3.8;1.95;;;;;;;1.61;84.2959;95214.98;;;;
2020/03/10 03:24:21;;;;;;;3.8;1.95;;;;;;;1.61;84.2959;95214.98;;;;
2020/03/10 03:25:22;;;;;;;3.8;1.95;;;;;;;1.61;84.2959;95214.98;;;;
2020/03/10 03:26:23;;;;;;;3.8;1.95;;;;;;;1.61;84.2959;95214.98;;;;
2020/03/10 03:27:24;;;;;;;3.8;1.95;;;;;;;1.61;84.2959;95214.98;;;;
2020/03/10 03:28:24;;;;;;;3.8;1.95;;;;;;;1.61;84.2959;95214.98;;;;
2020/03/10 03:29:25;;;;;;;3.05;1.6;;;;;;;1.78;84.16211;95213.36;;;;
2020/03/10 03:30:25;;;;;;;3.05;1.6;;;;;;;1.78;84.16211;95213.36;;;;
2020/03/10 03:31:26;;;;;;;3.05;1.6;;;;;;;1.78;84.16211;95213.36;;;;
2020/03/10 03:32:27;;;;;;;3.05;1.6;;;;;;;1.78;84.16211;95213.36;;;;
2020/03/10 03:33:27;;;;;;;3.05;1.6;;;;;;;1.78;84.16211;95213.36;;;;
2020/03/10 03:34:27;;;;;;;3.05;1.6;;;;;;;1.78;84.16211;95213.36;;;;
2020/03/10 03:35:28;;;;;;;3.05;1.6;;;;;;;1.78;84.16211;95213.36;;;;
2020/03/10 03:36:28;;;;;;;3.05;1.6;;;;;;;1.78;84.16211;95213.36;;;;
2020/03/10 03:37:29;;;;;;;3.05;1.6;;;;;;;1.78;84.16211;95213.36;;;;
2020/03/10 03:38:29;;;;;;;3.05;1.6;;;;;;;1.78;84.16211;95213.36;;;;
2020/03/10 03:39:30;;;;;;;3.05;1.6;;;;;;;1.78;84.16211;95213.36;;;;
2020/03/10 03:40:30;;;;;;;3.05;1.6;;;;;;;1.78;84.16211;95213.36;;;;
2020/03/10 03:41:31;;;;;;;3.05;1.6;;;;;;;1.78;84.16211;95213.36;;;;
2020/03/10 03:42:31;;;;;;;3.05;1.6;;;;;;;1.78;84.16211;95213.36;;;;
2020/03/10 03:43:32;;;;;;;3.05;1.6;;;;;;;1.78;84.16211;95213.36;;;;
2020/03/10 03:44:32;;;;;;;3.05;1.6;;;;;;;1.78;84.16211;95213.36;;;;
2020/03/10 03:45:33;;;;;;;3.05;1.6;;;;;;;1.78;84.16211;95213.36;;;;
2020/03/10 03:46:34;;;;;;;3.05;1.6;;;;;;;1.78;84.16211;95213.36;;;;
2020/03/10 03:47:36;;;;;;;3.05;1.6;;;;;;;1.78;84.16211;95213.36;;;;
2020/03/10 03:48:37;;;;;;;3.05;1.6;;;;;;;1.78;84.16211;95213.36;;;;
2020/03/10 03:49:37;;;;;;;3.05;1.6;;;;;;;1.78;84.16211;95213.36;;;;
2020/03/10 03:50:38;;;;;;;3.900001;1.55;;;;;;;1.99;83.31641;95224.53;;;;
2020/03/10 03:51:38;;;;;;;3.900001;1.55;;;;;;;1.99;83.31641;95224.53;;;;
2020/03/10 03:52:39;;;;;;;3.900001;1.55;;;;;;;1.99;83.31641;95224.53;;;;
2020/03/10 03:53:39;;;;;;;3.900001;1.55;;;;;;;1.99;83.31641;95224.53;;;;
2020/03/10 03:54:40;;;;;;;3.900001;1.55;;;;;;;1.99;83.31641;95224.53;;;;
2020/03/10 03:55:40;;;;;;;3.900001;1.55;;;;;;;1.99;83.31641;95224.53;;;;
2020/03/10 03:56:41;;;;;;;3.900001;1.55;;;;;;;1.99;83.31641;95224.53;;;;
2020/03/10 03:57:41;;;;;;;3.900001;1.55;;;;;;;1.99;83.31641;95224.53;;;;
2020/03/10 03:58:42;;;;;;;3.900001;1.55;;;;;;;1.99;83.31641;95224.53;;;;
2020/03/10 03:59:43;;;;;;;3.900001;1.55;;;;;;;1.99;83.31641;95224.53;;;;
2020/03/10 04:00:43;;;;;;;3.900001;1.55;;;;;;;1.99;83.31641;95224.53;;;;
2020/03/10 04:01:45;;;;;;;3.45;1.55;;;;;;;2;83.55664;95246.21;;;;
2020/03/10 04:02:47;;;;;;;3.45;1.55;;;;;;;2;83.55664;95246.21;;;;
2020/03/10 04:03:47;;;;;;;3.45;1.55;;;;;;;2;83.55664;95246.21;;;;
2020/03/10 04:04:49;;;;;;;3.45;1.55;;;;;;;2;83.55664;95246.21;;;;
2020/03/10 04:05:49;;;;;;;3.45;1.55;;;;;;;2;83.55664;95246.21;;;;
2020/03/10 04:06:50;;;;;;;3.45;1.55;;;;;;;2;83.55664;95246.21;;;;
2020/03/10 04:07:51;;;;;;;3.45;1.55;;;;;;;2;83.55664;95246.21;;;;
2020/03/10 04:08:54;;;;;;;3.45;1.55;;;;;;;2;83.55664;95246.21;;;;
2020/03/10 04:09:55;;;;;;;3.45;1.55;;;;;;;2;83.55664;95246.21;;;;
2020/03/10 04:10:55;;;;;;;3.45;1.55;;;;;;;2;83.55664;95246.21;;;;
2020/03/10 04:11:55;;;;;;;3.45;1.55;;;;;;;2;83.55664;95246.21;;;;
2020/03/10 04:12:56;;;;;;;3.45;1.55;;;;;;;2;83.55664;95246.21;;;;
2020/03/10 04:13:56;;;;;;;3.45;1.55;;;;;;;2;83.55664;95246.21;;;;
2020/03/10 04:14:57;;;;;;;3.45;1.55;;;;;;;2;83.55664;95246.21;;;;
2020/03/10 04:15:57;;;;;;;3.45;1.55;;;;;;;2;83.55664;95246.21;;;;
2020/03/10 04:16:58;;;;;;;3.45;1.55;;;;;;;2;83.55664;95246.21;;;;
2020/03/10 04:17:59;;;;;;;3.45;1.55;;;;;;;2;83.55664;95246.21;;;;
2020/03/10 04:18:59;;;;;;;3.45;1.55;;;;;;;2;83.55664;95246.21;;;;
2020/03/10 04:20:00;;;;;;;3.45;1.55;;;;;;;2;83.55664;95246.21;;;;
2020/03/10 04:21:00;;;;;;;3.45;1.55;;;;;;;2;83.55664;95246.21;;;;
2020/03/10 04:22:02;;;;;;;3.45;1.55;;;;;;;2;83.55664;95246.21;;;;
2020/03/10 04:23:03;;;;;;;2.65;1.35;;;;;;;2.11;83.22266;95250.16;;;;
2020/03/10 04:24:03;;;;;;;2.65;1.35;;;;;;;2.11;83.22266;95250.16;;;;
2020/03/10 04:25:04;;;;;;;2.65;1.35;;;;;;;2.11;83.22266;95250.16;;;;
2020/03/10 04:26:04;;;;;;;2.65;1.35;;;;;;;2.11;83.22266;95250.16;;;;
2020/03/10 04:27:05;;;;;;;2.65;1.35;;;;;;;2.11;83.22266;95250.16;;;;
2020/03/10 04:28:05;;;;;;;2.65;1.35;;;;;;;2.11;83.22266;95250.16;;;;
2020/03/10 04:29:08;;;;;;;2.65;1.35;;;;;;;2.11;83.22266;95250.16;;;;
2020/03/10 04:30:09;;;;;;;2.65;1.35;;;;;;;2.11;83.22266;95250.16;;;;
2020/03/10 04:31:14;;;;;;;2.65;1.35;;;;;;;2.11;83.22266;95250.16;;;;
2020/03/10 04:32:16;;;;;;;2.65;1.35;;;;;;;2.11;83.22266;95250.16;;;;
2020/03/10 04:33:17;;;;;;;3;1.5;;;;;;;2.14;83.23926;95256.47;;;;
2020/03/10 04:34:17;;;;;;;3;1.5;;;;;;;2.14;83.23926;95256.47;;;;
2020/03/10 04:35:17;;;;;;;3;1.5;;;;;;;2.14;83.23926;95256.47;;;;
2020/03/10 04:36:18;;;;;;;3;1.5;;;;;;;2.14;83.23926;95256.47;;;;
2020/03/10 04:37:19;;;;;;;3;1.5;;;;;;;2.14;83.23926;95256.47;;;;
2020/03/10 04:38:19;;;;;;;3;1.5;;;;;;;2.14;83.23926;95256.47;;;;
2020/03/10 04:39:20;;;;;;;3;1.5;;;;;;;2.14;83.23926;95256.47;;;;
2020/03/10 04:40:20;;;;;;;3;1.5;;;;;;;2.14;83.23926;95256.47;;;;
2020/03/10 04:41:21;;;;;;;3;1.5;;;;;;;2.14;83.23926;95256.47;;;;
2020/03/10 04:42:21;;;;;;;3;1.5;;;;;;;2.14;83.23926;95256.47;;;;
2020/03/10 04:43:22;;;;;;;3;1.5;;;;;;;2.14;83.23926;95256.47;;;;
2020/03/10 04:44:23;;;;;;;3.8;1.25;;;;;;;2.33;83.39258;95250.97;;;;
2020/03/10 04:45:23;;;;;;;3.8;1.25;;;;;;;2.33;83.39258;95250.97;;;;
2020/03/10 04:46:24;;;;;;;3.8;1.25;;;;;;;2.33;83.39258;95250.97;;;;
2020/03/10 04:47:25;;;;;;;3.8;1.25;;;;;;;2.33;83.39258;95250.97;;;;
2020/03/10 04:48:26;;;;;;;3.8;1.25;;;;;;;2.33;83.39258;95250.97;;;;
2020/03/10 04:49:27;;;;;;;3.8;1.25;;;;;;;2.33;83.39258;95250.97;;;;
2020/03/10 04:50:27;;;;;;;3.8;1.25;;;;;;;2.33;83.39258;95250.97;;;;
2020/03/10 04:51:28;;;;;;;3.8;1.25;;;;;;;2.33;83.39258;95250.97;;;;
2020/03/10 04:52:29;;;;;;;3.8;1.25;;;;;;;2.33;83.39258;95250.97;;;;
2020/03/10 04:53:30;;;;;;;3.8;1.25;;;;;;;2.33;83.39258;95250.97;;;;
2020/03/10 04:54:31;;;;;;;3.750001;1.5;;;;;;;2.51;83.21777;95230.08;;;;
2020/03/10 04:55:31;;;;;;;3.750001;1.5;;;;;;;2.51;83.21777;95230.08;;;;
2020/03/10 04:56:32;;;;;;;3.750001;1.5;;;;;;;2.51;83.21777;95230.08;;;;
2020/03/10 04:57:32;;;;;;;3.750001;1.5;;;;;;;2.51;83.21777;95230.08;;;;
2020/03/10 04:58:33;;;;;;;3.750001;1.5;;;;;;;2.51;83.21777;95230.08;;;;
2020/03/10 04:59:33;;;;;;;3.750001;1.5;;;;;;;2.51;83.21777;95230.08;;;;
2020/03/10 05:00:34;;;;;;;3.750001;1.5;;;;;;;2.51;83.21777;95230.08;;;;
2020/03/10 05:01:34;;;;;;;3.750001;1.5;;;;;;;2.51;83.21777;95230.08;;;;
2020/03/10 05:02:35;;;;;;;3.750001;1.5;;;;;;;2.51;83.21777;95230.08;;;;
2020/03/10 05:03:36;;;;;;;3.750001;1.5;;;;;;;2.51;83.21777;95230.08;;;;
2020/03/10 05:04:36;;;;;;;3.750001;1.5;;;;;;;2.51;83.21777;95230.08;;;;
2020/03/10 05:05:37;;;;;;;2.4;1;;;;;;;2.76;83.04492;95228.3;;;;
2020/03/10 05:06:37;;;;;;;2.4;1;;;;;;;2.76;83.04492;95228.3;;;;
2020/03/10 05:07:37;;;;;;;2.4;1;;;;;;;2.76;83.04492;95228.3;;;;
2020/03/10 05:08:38;;;;;;;2.4;1;;;;;;;2.76;83.04492;95228.3;;;;
2020/03/10 05:09:38;;;;;;;2.4;1;;;;;;;2.76;83.04492;95228.3;;;;
2020/03/10 05:10:39;;;;;;;2.4;1;;;;;;;2.76;83.04492;95228.3;;;;
2020/03/10 05:11:39;;;;;;;2.4;1;;;;;;;2.76;83.04492;95228.3;;;;
2020/03/10 05:12:40;;;;;;;2.4;1;;;;;;;2.76;83.04492;95228.3;;;;
2020/03/10 05:13:41;;;;;;;2.4;1;;;;;;;2.76;83.04492;95228.3;;;;
2020/03/10 05:14:41;;;;;;;2.4;1;;;;;;;2.76;83.04492;95228.3;;;;
2020/03/10 05:15:42;;;;;;;2.95;1.2;;;;;;;2.87;82.81543;95241.13;;;;
2020/03/10 05:16:42;;;;;;;2.95;1.2;;;;;;;2.87;82.81543;95241.13;;;;
2020/03/10 05:17:43;;;;;;;2.95;1.2;;;;;;;2.87;82.81543;95241.13;;;;
2020/03/10 05:18:43;;;;;;;2.95;1.2;;;;;;;2.87;82.81543;95241.13;;;;
2020/03/10 05:19:44;;;;;;;2.95;1.2;;;;;;;2.87;82.81543;95241.13;;;;
2020/03/10 05:20:44;;;;;;;2.95;1.2;;;;;;;2.87;82.81543;95241.13;;;;
2020/03/10 05:21:45;;;;;;;2.95;1.2;;;;;;;2.87;82.81543;95241.13;;;;
2020/03/10 05:22:45;;;;;;;2.95;1.2;;;;;;;2.87;82.81543;95241.13;;;;
2020/03/10 05:23:46;;;;;;;2.95;1.2;;;;;;;2.87;82.81543;95241.13;;;;
2020/03/10 05:24:46;;;;;;;2.95;1.2;;;;;;;2.87;82.81543;95241.13;;;;
2020/03/10 05:25:47;;;;;;;2.95;1.2;;;;;;;2.87;82.81543;95241.13;;;;
2020/03/10 05:26:47;;;;;;;3.5;1.35;;;;;;;3.08;82.6748;95204.27;;;;
2020/03/10 05:27:48;;;;;;;3.5;1.35;;;;;;;3.08;82.6748;95204.27;;;;
2020/03/10 05:28:48;;;;;;;3.5;1.35;;;;;;;3.08;82.6748;95204.27;;;;
2020/03/10 05:29:48;;;;;;;3.5;1.35;;;;;;;3.08;82.6748;95204.27;;;;
2020/03/10 05:30:49;;;;;;;3.5;1.35;;;;;;;3.08;82.6748;95204.27;;;;
2020/03/10 05:31:50;;;;;;;3.5;1.35;;;;;;;3.08;82.6748;95204.27;;;;
2020/03/10 05:32:50;;;;;;;3.5;1.35;;;;;;;3.08;82.6748;95204.27;;;;
2020/03/10 05:33:50;;;;;;;3.5;1.35;;;;;;;3.08;82.6748;95204.27;;;;
2020/03/10 05:34:51;;;;;;;3.5;1.35;;;;;;;3.08;82.6748;95204.27;;;;
2020/03/10 05:35:51;;;;;;;3.5;1.35;;;;;;;3.08;82.6748;95204.27;;;;
2020/03/10 05:36:52;;;;;;;4.05;1.4;;;;;;;3.2;82.21582;95170.33;;;;
2020/03/10 05:37:52;;;;;;;4.05;1.4;;;;;;;3.2;82.21582;95170.33;;;;
2020/03/10 05:38:53;;;;;;;4.05;1.4;;;;;;;3.2;82.21582;95170.33;;;;
2020/03/10 05:39:53;;;;;;;4.05;1.4;;;;;;;3.2;82.21582;95170.33;;;;
2020/03/10 05:40:53;;;;;;;4.05;1.4;;;;;;;3.2;82.21582;95170.33;;;;
2020/03/10 05:41:54;;;;;;;4.05;1.4;;;;;;;3.2;82.21582;95170.33;;;;
2020/03/10 05:42:54;;;;;;;4.05;1.4;;;;;;;3.2;82.21582;95170.33;;;;
2020/03/10 05:43:55;;;;;;;4.05;1.4;;;;;;;3.2;82.21582;95170.33;;;;
2020/03/10 05:44:55;;;;;;;4.05;1.4;;;;;;;3.2;82.21582;95170.33;;;;
2020/03/10 05:45:56;;;;;;;4.05;1.4;;;;;;;3.2;82.21582;95170.33;;;;
2020/03/10 05:46:56;;;;;;;4.05;1.4;;;;;;;3.2;82.21582;95170.33;;;;
2020/03/10 05:47:57;;;;;;;3.4;1.2;;;;;;;3.4;81.84473;95150.87;;;;
2020/03/10 05:48:57;;;;;;;3.4;1.2;;;;;;;3.4;81.84473;95150.87;;;;
2020/03/10 05:49:58;;;;;;;3.4;1.2;;;;;;;3.4;81.84473;95150.87;;;;